sensor_id;sensor_type;location;lat;lon;timestamp;noise_LAeq;noise_LA_min;noise_LA_max;noise_LA01;noise_LA95
72028;Laerm;59781;52.090;5.030;2023-04-24T00:00:19;49.79;40.37;70.11;;
72028;Laerm;59781;52.090;5.030;2023-04-24T00:02:45;46.04;39.78;74.90;;
72028;Laerm;59781;52.090;5.030;2023-04-24T00:05:15;43.88;39.07;65.73;;
72028;Laerm;59781;52.090;5.030;2023-04-24T00:07:41;46.68;39.36;76.08;;
72028;Laerm;59781;52.090;5.030;2023-04-24T00:10:08;48.38;39.72;81.46;;
72028;Laerm;59781;52.090;5.030;2023-04-24T00:12:36;46.01;39.09;72.22;;
72028;Laerm;59781;52.090;5.030;2023-04-24T00:15:03;42.64;39.14;63.53;;
72028;Laerm;59781;52.090;5.030;2023-04-24T00:17:29;42.42;38.15;59.66;;
72028;Laerm;59781;52.090;5.030;2023-04-24T00:19:54;43.45;38.66;65.57;;
72028;Laerm;59781;52.090;5.030;2023-04-24T00:22:28;45.42;39.10;69.37;;
72028;Laerm;59781;52.090;5.030;2023-04-24T00:24:54;45.97;39.07;66.22;;
72028;Laerm;59781;52.090;5.030;2023-04-24T00:27:20;43.55;38.75;74.98;;
72028;Laerm;59781;52.090;5.030;2023-04-24T00:29:47;42.78;38.57;61.72;;
72028;Laerm;59781;52.090;5.030;2023-04-24T00:32:13;43.45;38.12;68.82;;
72028;Laerm;59781;52.090;5.030;2023-04-24T00:34:40;44.11;38.52;71.91;;
72028;Laerm;59781;52.090;5.030;2023-04-24T00:37:06;43.23;38.62;68.14;;
72028;Laerm;59781;52.090;5.030;2023-04-24T00:39:32;43.56;38.72;64.65;;
72028;Laerm;59781;52.090;5.030;2023-04-24T00:41:58;44.89;39.18;65.13;;
72028;Laerm;59781;52.090;5.030;2023-04-24T00:44:24;45.96;39.20;74.59;;
72028;Laerm;59781;52.090;5.030;2023-04-24T00:46:50;43.80;39.11;66.08;;
72028;Laerm;59781;52.090;5.030;2023-04-24T00:49:21;45.74;39.06;74.78;;
72028;Laerm;59781;52.090;5.030;2023-04-24T00:51:47;44.12;38.65;66.75;;
72028;Laerm;59781;52.090;5.030;2023-04-24T00:54:15;44.32;38.48;70.79;;
72028;Laerm;59781;52.090;5.030;2023-04-24T00:56:42;44.52;38.76;69.88;;
72028;Laerm;59781;52.090;5.030;2023-04-24T00:59:09;43.33;38.63;68.89;;
72028;Laerm;59781;52.090;5.030;2023-04-24T01:01:36;43.09;38.26;67.18;;
72028;Laerm;59781;52.090;5.030;2023-04-24T01:04:03;45.12;38.55;74.48;;
72028;Laerm;59781;52.090;5.030;2023-04-24T01:06:29;44.51;38.31;67.63;;
72028;Laerm;59781;52.090;5.030;2023-04-24T01:08:59;44.13;38.36;71.54;;
72028;Laerm;59781;52.090;5.030;2023-04-24T01:11:26;43.55;38.53;67.17;;
72028;Laerm;59781;52.090;5.030;2023-04-24T01:13:52;43.24;38.69;65.65;;
72028;Laerm;59781;52.090;5.030;2023-04-24T01:16:19;44.91;38.10;75.49;;
72028;Laerm;59781;52.090;5.030;2023-04-24T01:18:47;43.06;38.20;66.01;;
72028;Laerm;59781;52.090;5.030;2023-04-24T01:21:15;43.55;38.14;65.65;;
72028;Laerm;59781;52.090;5.030;2023-04-24T01:23:45;41.79;37.75;62.61;;
72028;Laerm;59781;52.090;5.030;2023-04-24T01:26:14;43.14;37.50;75.18;;
72028;Laerm;59781;52.090;5.030;2023-04-24T01:28:40;46.76;37.55;69.15;;
72028;Laerm;59781;52.090;5.030;2023-04-24T01:31:06;42.00;37.49;64.52;;
72028;Laerm;59781;52.090;5.030;2023-04-24T01:33:32;43.44;37.88;69.26;;
72028;Laerm;59781;52.090;5.030;2023-04-24T01:35:58;43.12;37.69;66.10;;
72028;Laerm;59781;52.090;5.030;2023-04-24T01:38:25;44.68;38.55;69.48;;
72028;Laerm;59781;52.090;5.030;2023-04-24T01:40:52;45.43;38.68;68.84;;
72028;Laerm;59781;52.090;5.030;2023-04-24T01:43:18;42.02;37.47;64.02;;
72028;Laerm;59781;52.090;5.030;2023-04-24T01:45:44;44.36;38.31;69.72;;
72028;Laerm;59781;52.090;5.030;2023-04-24T01:48:12;41.06;37.67;68.17;;
72028;Laerm;59781;52.090;5.030;2023-04-24T01:50:39;40.60;37.47;62.87;;
72028;Laerm;59781;52.090;5.030;2023-04-24T01:53:05;40.24;37.71;60.64;;
72028;Laerm;59781;52.090;5.030;2023-04-24T01:55:31;41.56;38.30;59.10;;
72028;Laerm;59781;52.090;5.030;2023-04-24T01:57:59;41.83;38.34;64.12;;
72028;Laerm;59781;52.090;5.030;2023-04-24T02:00:25;40.80;37.96;60.97;;
72028;Laerm;59781;52.090;5.030;2023-04-24T02:02:52;41.25;37.64;56.58;;
72028;Laerm;59781;52.090;5.030;2023-04-24T02:05:18;40.32;37.87;56.08;;
72028;Laerm;59781;52.090;5.030;2023-04-24T02:07:44;41.52;38.16;59.16;;
72028;Laerm;59781;52.090;5.030;2023-04-24T02:10:10;44.32;37.94;76.42;;
72028;Laerm;59781;52.090;5.030;2023-04-24T02:12:36;41.80;37.81;66.69;;
72028;Laerm;59781;52.090;5.030;2023-04-24T02:15:02;43.09;38.45;57.36;;
72028;Laerm;59781;52.090;5.030;2023-04-24T02:17:28;44.98;37.93;74.84;;
72028;Laerm;59781;52.090;5.030;2023-04-24T02:19:54;45.87;39.28;68.83;;
72028;Laerm;59781;52.090;5.030;2023-04-24T02:22:19;45.72;39.29;69.65;;
72028;Laerm;59781;52.090;5.030;2023-04-24T02:24:45;43.01;38.40;64.41;;
72028;Laerm;59781;52.090;5.030;2023-04-24T02:27:13;42.94;39.09;70.33;;
72028;Laerm;59781;52.090;5.030;2023-04-24T02:29:40;43.75;38.16;73.84;;
72028;Laerm;59781;52.090;5.030;2023-04-24T02:32:06;42.51;38.57;59.74;;
72028;Laerm;59781;52.090;5.030;2023-04-24T02:34:32;42.42;39.16;60.18;;
72028;Laerm;59781;52.090;5.030;2023-04-24T02:36:59;46.11;39.11;77.63;;
72028;Laerm;59781;52.090;5.030;2023-04-24T02:39:24;46.08;39.72;73.24;;
72028;Laerm;59781;52.090;5.030;2023-04-24T02:41:51;47.70;40.60;68.68;;
72028;Laerm;59781;52.090;5.030;2023-04-24T02:44:17;48.58;40.71;74.93;;
72028;Laerm;59781;52.090;5.030;2023-04-24T02:46:43;47.78;40.50;72.02;;
72028;Laerm;59781;52.090;5.030;2023-04-24T02:49:09;49.36;40.60;73.72;;
72028;Laerm;59781;52.090;5.030;2023-04-24T02:51:34;52.91;42.44;74.38;;
72028;Laerm;59781;52.090;5.030;2023-04-24T02:54:00;55.83;44.96;84.39;;
72028;Laerm;59781;52.090;5.030;2023-04-24T02:56:26;54.09;43.22;78.66;;
72028;Laerm;59781;52.090;5.030;2023-04-24T02:58:53;54.04;43.04;80.18;;
72028;Laerm;59781;52.090;5.030;2023-04-24T03:01:19;53.17;43.36;77.62;;
72028;Laerm;59781;52.090;5.030;2023-04-24T03:03:44;54.23;43.45;83.51;;
72028;Laerm;59781;52.090;5.030;2023-04-24T03:06:10;54.55;44.25;82.11;;
72028;Laerm;59781;52.090;5.030;2023-04-24T03:08:36;53.51;43.77;78.26;;
72028;Laerm;59781;52.090;5.030;2023-04-24T03:11:02;51.83;42.94;74.94;;
72028;Laerm;59781;52.090;5.030;2023-04-24T03:13:28;52.09;43.31;77.77;;
72028;Laerm;59781;52.090;5.030;2023-04-24T03:15:53;51.32;43.00;77.67;;
72028;Laerm;59781;52.090;5.030;2023-04-24T03:18:19;50.41;42.80;74.82;;
72028;Laerm;59781;52.090;5.030;2023-04-24T03:20:47;52.22;42.72;79.89;;
72028;Laerm;59781;52.090;5.030;2023-04-24T03:23:14;53.15;42.04;78.05;;
72028;Laerm;59781;52.090;5.030;2023-04-24T03:25:39;51.01;42.70;72.85;;
72028;Laerm;59781;52.090;5.030;2023-04-24T03:28:06;53.31;43.58;77.69;;
72028;Laerm;59781;52.090;5.030;2023-04-24T03:30:38;52.62;43.96;74.79;;
72028;Laerm;59781;52.090;5.030;2023-04-24T03:33:04;52.36;43.68;76.18;;
72028;Laerm;59781;52.090;5.030;2023-04-24T03:35:33;52.90;43.88;81.32;;
72028;Laerm;59781;52.090;5.030;2023-04-24T03:38:02;52.69;44.19;74.08;;
72028;Laerm;59781;52.090;5.030;2023-04-24T03:40:52;52.13;43.24;76.12;;
72028;Laerm;59781;52.090;5.030;2023-04-24T03:43:34;53.55;43.16;79.64;;
72028;Laerm;59781;52.090;5.030;2023-04-24T03:46:04;52.54;43.74;76.47;;
72028;Laerm;59781;52.090;5.030;2023-04-24T03:48:33;53.01;43.81;77.86;;
72028;Laerm;59781;52.090;5.030;2023-04-24T03:51:00;50.27;43.55;72.80;;
72028;Laerm;59781;52.090;5.030;2023-04-24T03:53:28;57.87;45.26;82.15;;
72028;Laerm;59781;52.090;5.030;2023-04-24T03:55:55;63.45;49.99;84.84;;
72028;Laerm;59781;52.090;5.030;2023-04-24T03:58:20;60.85;50.04;86.86;;
72028;Laerm;59781;52.090;5.030;2023-04-24T04:00:46;56.36;50.29;84.76;;
72028;Laerm;59781;52.090;5.030;2023-04-24T04:03:36;52.21;43.31;73.96;;
72028;Laerm;59781;52.090;5.030;2023-04-24T04:06:01;47.64;41.04;69.70;;
72028;Laerm;59781;52.090;5.030;2023-04-24T04:08:27;47.23;41.99;73.87;;
72028;Laerm;59781;52.090;5.030;2023-04-24T04:10:53;46.47;42.02;63.74;;
72028;Laerm;59781;52.090;5.030;2023-04-24T04:13:19;45.34;40.37;67.51;;
72028;Laerm;59781;52.090;5.030;2023-04-24T04:15:45;44.57;40.27;65.24;;
72028;Laerm;59781;52.090;5.030;2023-04-24T04:18:11;47.22;41.07;67.47;;
72028;Laerm;59781;52.090;5.030;2023-04-24T04:20:37;45.74;41.69;66.59;;
72028;Laerm;59781;52.090;5.030;2023-04-24T04:23:03;46.74;42.56;67.72;;
72028;Laerm;59781;52.090;5.030;2023-04-24T04:25:40;46.69;42.67;68.98;;
72028;Laerm;59781;52.090;5.030;2023-04-24T04:28:05;47.39;43.49;66.84;;
72028;Laerm;59781;52.090;5.030;2023-04-24T04:30:31;45.51;41.98;64.66;;
72028;Laerm;59781;52.090;5.030;2023-04-24T04:33:01;48.10;43.19;74.39;;
72028;Laerm;59781;52.090;5.030;2023-04-24T04:35:28;46.80;42.67;70.07;;
72028;Laerm;59781;52.090;5.030;2023-04-24T04:37:55;47.96;43.13;70.78;;
72028;Laerm;59781;52.090;5.030;2023-04-24T04:40:44;48.56;44.87;73.37;;
72028;Laerm;59781;52.090;5.030;2023-04-24T04:43:12;50.64;45.10;66.14;;
72028;Laerm;59781;52.090;5.030;2023-04-24T04:45:44;46.91;42.97;66.39;;
72028;Laerm;59781;52.090;5.030;2023-04-24T04:48:30;49.00;44.20;74.43;;
72028;Laerm;59781;52.090;5.030;2023-04-24T04:50:59;49.17;45.59;73.10;;
72028;Laerm;59781;52.090;5.030;2023-04-24T04:53:25;49.11;44.85;73.31;;
72028;Laerm;59781;52.090;5.030;2023-04-24T04:55:52;49.56;45.62;69.50;;
72028;Laerm;59781;52.090;5.030;2023-04-24T04:58:19;52.11;46.63;75.97;;
72028;Laerm;59781;52.090;5.030;2023-04-24T05:00:47;53.72;44.91;83.66;;
72028;Laerm;59781;52.090;5.030;2023-04-24T05:03:25;49.34;44.35;68.22;;
72028;Laerm;59781;52.090;5.030;2023-04-24T05:06:02;51.93;46.55;76.90;;
72028;Laerm;59781;52.090;5.030;2023-04-24T05:08:31;50.36;45.72;66.88;;
72028;Laerm;59781;52.090;5.030;2023-04-24T05:10:57;50.28;46.42;69.78;;
72028;Laerm;59781;52.090;5.030;2023-04-24T05:13:26;52.32;46.30;75.92;;
72028;Laerm;59781;52.090;5.030;2023-04-24T05:15:52;51.36;45.88;73.24;;
72028;Laerm;59781;52.090;5.030;2023-04-24T05:18:17;52.06;45.05;73.40;;
72028;Laerm;59781;52.090;5.030;2023-04-24T05:20:43;51.02;45.37;74.77;;
72028;Laerm;59781;52.090;5.030;2023-04-24T05:23:10;52.58;45.42;76.13;;
72028;Laerm;59781;52.090;5.030;2023-04-24T05:25:38;50.27;45.08;72.47;;
72028;Laerm;59781;52.090;5.030;2023-04-24T05:28:09;52.49;45.68;80.32;;
72028;Laerm;59781;52.090;5.030;2023-04-24T05:30:34;54.68;45.93;81.83;;
72028;Laerm;59781;52.090;5.030;2023-04-24T05:33:01;54.89;46.51;81.23;;
72028;Laerm;59781;52.090;5.030;2023-04-24T05:35:27;54.74;45.69;85.37;;
72028;Laerm;59781;52.090;5.030;2023-04-24T05:37:53;54.50;46.43;81.30;;
72028;Laerm;59781;52.090;5.030;2023-04-24T05:40:19;55.13;47.21;81.59;;
72028;Laerm;59781;52.090;5.030;2023-04-24T05:42:45;55.69;47.67;79.01;;
72028;Laerm;59781;52.090;5.030;2023-04-24T05:45:10;56.27;48.79;84.61;;
72028;Laerm;59781;52.090;5.030;2023-04-24T05:47:43;56.26;49.28;79.81;;
72028;Laerm;59781;52.090;5.030;2023-04-24T05:50:11;56.84;50.11;77.97;;
72028;Laerm;59781;52.090;5.030;2023-04-24T05:52:37;59.50;50.15;84.41;;
72028;Laerm;59781;52.090;5.030;2023-04-24T05:55:08;54.36;48.51;77.25;;
72028;Laerm;59781;52.090;5.030;2023-04-24T05:57:37;56.14;48.17;82.72;;
72028;Laerm;59781;52.090;5.030;2023-04-24T06:00:04;52.04;46.20;73.07;;
72028;Laerm;59781;52.090;5.030;2023-04-24T06:02:39;51.61;46.87;69.60;;
72028;Laerm;59781;52.090;5.030;2023-04-24T06:05:07;51.29;46.51;71.79;;
72028;Laerm;59781;52.090;5.030;2023-04-24T06:07:33;50.86;46.85;67.88;;
72028;Laerm;59781;52.090;5.030;2023-04-24T06:10:02;50.39;45.75;69.63;;
72028;Laerm;59781;52.090;5.030;2023-04-24T06:12:33;50.56;45.78;75.85;;
72028;Laerm;59781;52.090;5.030;2023-04-24T06:15:06;50.92;46.80;70.84;;
72028;Laerm;59781;52.090;5.030;2023-04-24T06:17:51;50.43;46.04;74.79;;
72028;Laerm;59781;52.090;5.030;2023-04-24T06:20:19;50.55;46.89;69.91;;
72028;Laerm;59781;52.090;5.030;2023-04-24T06:22:45;50.32;46.68;72.93;;
72028;Laerm;59781;52.090;5.030;2023-04-24T06:25:10;51.04;47.03;74.19;;
72028;Laerm;59781;52.090;5.030;2023-04-24T06:27:36;50.03;46.51;72.91;;
72028;Laerm;59781;52.090;5.030;2023-04-24T06:30:02;49.02;44.12;71.19;;
72028;Laerm;59781;52.090;5.030;2023-04-24T06:32:28;49.55;45.53;71.37;;
72028;Laerm;59781;52.090;5.030;2023-04-24T06:34:56;50.36;44.71;70.64;;
72028;Laerm;59781;52.090;5.030;2023-04-24T06:37:22;48.43;44.88;65.96;;
72028;Laerm;59781;52.090;5.030;2023-04-24T06:39:48;49.45;45.12;66.16;;
72028;Laerm;59781;52.090;5.030;2023-04-24T06:42:13;48.47;44.69;61.43;;
72028;Laerm;59781;52.090;5.030;2023-04-24T06:44:42;49.25;45.57;68.66;;
72028;Laerm;59781;52.090;5.030;2023-04-24T06:47:10;48.79;45.73;61.38;;
72028;Laerm;59781;52.090;5.030;2023-04-24T06:49:37;49.57;45.75;62.30;;
72028;Laerm;59781;52.090;5.030;2023-04-24T06:52:03;49.88;45.23;66.82;;
72028;Laerm;59781;52.090;5.030;2023-04-24T06:54:30;49.45;44.16;63.08;;
72028;Laerm;59781;52.090;5.030;2023-04-24T06:56:56;50.44;46.88;66.50;;
72028;Laerm;59781;52.090;5.030;2023-04-24T06:59:26;50.24;46.75;67.09;;
72028;Laerm;59781;52.090;5.030;2023-04-24T07:01:54;50.42;47.16;63.94;;
72028;Laerm;59781;52.090;5.030;2023-04-24T07:04:20;50.53;46.63;65.18;;
72028;Laerm;59781;52.090;5.030;2023-04-24T07:06:46;49.02;44.32;67.53;;
72028;Laerm;59781;52.090;5.030;2023-04-24T07:09:12;48.92;44.68;70.84;;
72028;Laerm;59781;52.090;5.030;2023-04-24T07:11:47;47.32;43.54;61.15;;
72028;Laerm;59781;52.090;5.030;2023-04-24T07:14:13;47.55;43.76;68.32;;
72028;Laerm;59781;52.090;5.030;2023-04-24T07:16:39;47.04;43.95;54.91;;
72028;Laerm;59781;52.090;5.030;2023-04-24T07:19:05;47.01;43.07;60.04;;
72028;Laerm;59781;52.090;5.030;2023-04-24T07:21:31;49.08;43.33;60.71;;
72028;Laerm;59781;52.090;5.030;2023-04-24T07:23:58;46.98;43.51;57.38;;
72028;Laerm;59781;52.090;5.030;2023-04-24T07:26:29;46.76;42.90;55.52;;
72028;Laerm;59781;52.090;5.030;2023-04-24T07:28:55;46.11;42.88;52.26;;
72028;Laerm;59781;52.090;5.030;2023-04-24T07:31:21;46.06;42.60;50.55;;
72028;Laerm;59781;52.090;5.030;2023-04-24T07:33:48;45.93;41.25;59.46;;
72028;Laerm;59781;52.090;5.030;2023-04-24T07:36:14;45.69;41.98;52.90;;
72028;Laerm;59781;52.090;5.030;2023-04-24T07:38:45;47.13;42.87;57.51;;
72028;Laerm;59781;52.090;5.030;2023-04-24T07:41:13;47.95;43.28;60.10;;
72028;Laerm;59781;52.090;5.030;2023-04-24T07:43:39;46.19;42.26;51.46;;
72028;Laerm;59781;52.090;5.030;2023-04-24T07:46:07;46.35;42.96;58.42;;
72028;Laerm;59781;52.090;5.030;2023-04-24T07:48:33;48.96;43.43;62.95;;
72028;Laerm;59781;52.090;5.030;2023-04-24T07:50:59;45.44;41.28;48.97;;
72028;Laerm;59781;52.090;5.030;2023-04-24T07:53:24;46.41;42.94;51.83;;
72028;Laerm;59781;52.090;5.030;2023-04-24T07:55:50;45.23;41.51;50.86;;
72028;Laerm;59781;52.090;5.030;2023-04-24T07:58:16;47.16;42.73;65.25;;
72028;Laerm;59781;52.090;5.030;2023-04-24T08:00:41;52.07;42.38;79.93;;
72028;Laerm;59781;52.090;5.030;2023-04-24T08:03:07;47.98;42.73;70.77;;
72028;Laerm;59781;52.090;5.030;2023-04-24T08:05:33;52.28;42.36;73.13;;
72028;Laerm;59781;52.090;5.030;2023-04-24T08:07:59;47.85;41.34;70.02;;
72028;Laerm;59781;52.090;5.030;2023-04-24T08:10:25;47.88;43.47;55.21;;
72028;Laerm;59781;52.090;5.030;2023-04-24T08:12:51;51.94;44.10;68.40;;
72028;Laerm;59781;52.090;5.030;2023-04-24T08:15:17;48.57;42.73;66.26;;
72028;Laerm;59781;52.090;5.030;2023-04-24T08:17:43;46.67;42.04;53.47;;
72028;Laerm;59781;52.090;5.030;2023-04-24T08:20:12;48.10;43.67;57.47;;
72028;Laerm;59781;52.090;5.030;2023-04-24T08:22:43;46.56;43.09;57.86;;
72028;Laerm;59781;52.090;5.030;2023-04-24T08:25:10;45.61;41.63;58.51;;
72028;Laerm;59781;52.090;5.030;2023-04-24T08:27:36;46.41;41.67;55.87;;
72028;Laerm;59781;52.090;5.030;2023-04-24T08:30:04;47.36;41.18;66.45;;
72028;Laerm;59781;52.090;5.030;2023-04-24T08:32:30;49.25;44.31;59.47;;
72028;Laerm;59781;52.090;5.030;2023-04-24T08:34:57;45.97;41.84;53.01;;
72028;Laerm;59781;52.090;5.030;2023-04-24T08:37:26;44.98;41.75;58.06;;
72028;Laerm;59781;52.090;5.030;2023-04-24T08:39:52;45.69;42.31;52.72;;
72028;Laerm;59781;52.090;5.030;2023-04-24T08:42:20;46.12;41.71;54.77;;
72028;Laerm;59781;52.090;5.030;2023-04-24T08:44:49;46.49;42.46;60.60;;
72028;Laerm;59781;52.090;5.030;2023-04-24T08:47:16;47.66;43.30;72.93;;
72028;Laerm;59781;52.090;5.030;2023-04-24T08:49:42;45.63;42.19;56.04;;
72028;Laerm;59781;52.090;5.030;2023-04-24T08:52:08;45.72;42.29;52.29;;
72028;Laerm;59781;52.090;5.030;2023-04-24T08:54:35;46.67;42.34;63.61;;
72028;Laerm;59781;52.090;5.030;2023-04-24T08:57:03;46.92;42.73;64.68;;
72028;Laerm;59781;52.090;5.030;2023-04-24T08:59:32;45.62;41.55;59.33;;
72028;Laerm;59781;52.090;5.030;2023-04-24T09:02:00;47.81;42.30;61.98;;
72028;Laerm;59781;52.090;5.030;2023-04-24T09:04:28;46.36;41.62;61.38;;
72028;Laerm;59781;52.090;5.030;2023-04-24T09:06:57;46.75;41.02;61.16;;
72028;Laerm;59781;52.090;5.030;2023-04-24T09:09:25;48.01;43.22;62.07;;
72028;Laerm;59781;52.090;5.030;2023-04-24T09:11:52;45.41;42.11;54.32;;
72028;Laerm;59781;52.090;5.030;2023-04-24T09:14:21;47.28;42.25;67.60;;
72028;Laerm;59781;52.090;5.030;2023-04-24T09:16:50;51.23;43.01;77.15;;
72028;Laerm;59781;52.090;5.030;2023-04-24T09:19:16;52.39;43.10;72.29;;
72028;Laerm;59781;52.090;5.030;2023-04-24T09:21:46;47.75;42.72;61.83;;
72028;Laerm;59781;52.090;5.030;2023-04-24T09:24:18;48.76;42.70;72.88;;
72028;Laerm;59781;52.090;5.030;2023-04-24T09:26:46;47.66;42.87;59.73;;
72028;Laerm;59781;52.090;5.030;2023-04-24T09:29:18;46.98;42.87;61.84;;
72028;Laerm;59781;52.090;5.030;2023-04-24T09:31:46;49.32;41.30;73.93;;
72028;Laerm;59781;52.090;5.030;2023-04-24T09:34:12;48.12;42.88;59.13;;
72028;Laerm;59781;52.090;5.030;2023-04-24T09:36:42;48.79;41.96;72.54;;
72028;Laerm;59781;52.090;5.030;2023-04-24T09:39:15;47.03;42.10;58.71;;
72028;Laerm;59781;52.090;5.030;2023-04-24T09:41:49;47.51;41.94;66.29;;
72028;Laerm;59781;52.090;5.030;2023-04-24T09:44:22;46.79;41.91;60.91;;
72028;Laerm;59781;52.090;5.030;2023-04-24T09:46:58;46.46;43.10;61.00;;
72028;Laerm;59781;52.090;5.030;2023-04-24T09:49:28;46.35;42.99;60.83;;
72028;Laerm;59781;52.090;5.030;2023-04-24T09:52:10;48.63;43.38;66.83;;
72028;Laerm;59781;52.090;5.030;2023-04-24T09:54:37;47.30;42.48;61.52;;
72028;Laerm;59781;52.090;5.030;2023-04-24T09:57:03;54.58;42.76;70.93;;
72028;Laerm;59781;52.090;5.030;2023-04-24T09:59:30;46.01;42.77;55.55;;
72028;Laerm;59781;52.090;5.030;2023-04-24T10:01:56;46.69;42.51;62.85;;
72028;Laerm;59781;52.090;5.030;2023-04-24T10:04:27;45.76;42.86;56.90;;
72028;Laerm;59781;52.090;5.030;2023-04-24T10:06:56;45.35;41.63;50.60;;
72028;Laerm;59781;52.090;5.030;2023-04-24T10:09:25;45.06;42.05;55.65;;
72028;Laerm;59781;52.090;5.030;2023-04-24T10:11:54;47.23;43.10;64.19;;
72028;Laerm;59781;52.090;5.030;2023-04-24T10:14:24;46.06;41.46;53.25;;
72028;Laerm;59781;52.090;5.030;2023-04-24T10:16:54;46.71;42.87;60.43;;
72028;Laerm;59781;52.090;5.030;2023-04-24T10:19:20;49.25;41.58;75.91;;
72028;Laerm;59781;52.090;5.030;2023-04-24T10:21:46;57.82;41.51;77.62;;
72028;Laerm;59781;52.090;5.030;2023-04-24T10:24:18;49.49;44.71;67.78;;
72028;Laerm;59781;52.090;5.030;2023-04-24T10:26:46;47.25;42.78;70.33;;
72028;Laerm;59781;52.090;5.030;2023-04-24T10:29:17;52.26;42.97;80.56;;
72028;Laerm;59781;52.090;5.030;2023-04-24T10:31:45;48.74;43.68;66.04;;
72028;Laerm;59781;52.090;5.030;2023-04-24T10:34:12;47.56;43.01;62.76;;
72028;Laerm;59781;52.090;5.030;2023-04-24T10:36:46;49.63;42.86;74.94;;
72028;Laerm;59781;52.090;5.030;2023-04-24T10:39:16;51.30;42.61;63.87;;
72028;Laerm;59781;52.090;5.030;2023-04-24T10:41:42;46.89;41.92;64.11;;
72028;Laerm;59781;52.090;5.030;2023-04-24T10:44:10;44.92;41.44;51.30;;
72028;Laerm;59781;52.090;5.030;2023-04-24T10:46:38;46.11;42.41;61.56;;
72028;Laerm;59781;52.090;5.030;2023-04-24T10:49:06;50.60;42.87;66.53;;
72028;Laerm;59781;52.090;5.030;2023-04-24T10:51:48;46.77;41.61;60.06;;
72028;Laerm;59781;52.090;5.030;2023-04-24T10:59:44;47.48;42.91;61.86;;
72028;Laerm;59781;52.090;5.030;2023-04-24T11:02:10;46.27;41.60;60.93;;
72028;Laerm;59781;52.090;5.030;2023-04-24T11:04:36;46.63;42.85;57.70;;
72028;Laerm;59781;52.090;5.030;2023-04-24T11:07:05;48.05;43.21;71.99;;
72028;Laerm;59781;52.090;5.030;2023-04-24T11:09:32;47.50;43.18;60.71;;
72028;Laerm;59781;52.090;5.030;2023-04-24T11:12:09;47.28;43.71;61.21;;
72028;Laerm;59781;52.090;5.030;2023-04-24T11:17:36;47.97;43.35;63.50;;
72028;Laerm;59781;52.090;5.030;2023-04-24T11:20:16;46.60;42.84;54.25;;
72028;Laerm;59781;52.090;5.030;2023-04-24T11:22:42;46.79;43.38;59.48;;
72028;Laerm;59781;52.090;5.030;2023-04-24T11:25:09;46.41;42.92;55.18;;
72028;Laerm;59781;52.090;5.030;2023-04-24T11:27:44;49.94;42.95;75.01;;
72028;Laerm;59781;52.090;5.030;2023-04-24T11:30:12;45.98;42.06;65.05;;
72028;Laerm;59781;52.090;5.030;2023-04-24T11:32:43;46.96;42.18;67.12;;
72028;Laerm;59781;52.090;5.030;2023-04-24T11:35:20;47.19;42.14;61.03;;
72028;Laerm;59781;52.090;5.030;2023-04-24T11:37:54;49.52;42.66;64.23;;
72028;Laerm;59781;52.090;5.030;2023-04-24T11:40:22;47.57;43.54;62.69;;
72028;Laerm;59781;52.090;5.030;2023-04-24T11:42:54;45.64;41.73;60.24;;
72028;Laerm;59781;52.090;5.030;2023-04-24T11:45:26;54.63;41.55;84.54;;
72028;Laerm;59781;52.090;5.030;2023-04-24T11:47:53;46.73;42.08;53.99;;
72028;Laerm;59781;52.090;5.030;2023-04-24T11:50:23;47.57;41.44;74.01;;
72028;Laerm;59781;52.090;5.030;2023-04-24T11:52:51;46.77;42.26;67.34;;
72028;Laerm;59781;52.090;5.030;2023-04-24T11:57:52;45.86;40.89;58.50;;
72028;Laerm;59781;52.090;5.030;2023-04-24T12:00:22;51.51;40.60;71.63;;
72028;Laerm;59781;52.090;5.030;2023-04-24T12:02:49;45.48;41.23;59.03;;
72028;Laerm;59781;52.090;5.030;2023-04-24T12:05:20;48.82;43.14;71.77;;
72028;Laerm;59781;52.090;5.030;2023-04-24T12:07:46;47.96;42.73;67.34;;
72028;Laerm;59781;52.090;5.030;2023-04-24T12:10:12;46.26;42.03;62.27;;
72028;Laerm;59781;52.090;5.030;2023-04-24T12:12:37;47.23;43.32;57.06;;
72028;Laerm;59781;52.090;5.030;2023-04-24T12:15:08;47.59;42.40;58.40;;
72028;Laerm;59781;52.090;5.030;2023-04-24T12:17:35;53.83;43.33;73.51;;
72028;Laerm;59781;52.090;5.030;2023-04-24T12:20:07;47.14;42.88;66.50;;
72028;Laerm;59781;52.090;5.030;2023-04-24T12:22:46;47.29;42.42;59.28;;
72028;Laerm;59781;52.090;5.030;2023-04-24T12:25:15;49.03;42.58;75.44;;
72028;Laerm;59781;52.090;5.030;2023-04-24T12:27:41;46.19;42.53;61.50;;
72028;Laerm;59781;52.090;5.030;2023-04-24T12:30:15;46.26;41.54;64.27;;
72028;Laerm;59781;52.090;5.030;2023-04-24T12:32:47;45.24;40.83;57.53;;
72028;Laerm;59781;52.090;5.030;2023-04-24T12:35:21;45.67;42.28;52.82;;
72028;Laerm;59781;52.090;5.030;2023-04-24T12:37:47;48.25;42.82;62.20;;
72028;Laerm;59781;52.090;5.030;2023-04-24T12:40:14;46.89;42.82;66.59;;
72028;Laerm;59781;52.090;5.030;2023-04-24T12:42:47;47.92;42.07;67.42;;
72028;Laerm;59781;52.090;5.030;2023-04-24T12:45:15;47.21;42.05;68.12;;
72028;Laerm;59781;52.090;5.030;2023-04-24T12:47:43;49.28;42.82;64.88;;
72028;Laerm;59781;52.090;5.030;2023-04-24T12:50:13;47.71;42.76;65.02;;
72028;Laerm;59781;52.090;5.030;2023-04-24T12:52:41;46.54;42.76;54.38;;
72028;Laerm;59781;52.090;5.030;2023-04-24T12:55:07;45.69;42.15;53.46;;
72028;Laerm;59781;52.090;5.030;2023-04-24T12:57:37;50.24;42.19;69.79;;
72028;Laerm;59781;52.090;5.030;2023-04-24T13:00:05;48.32;42.58;65.71;;
72028;Laerm;59781;52.090;5.030;2023-04-24T13:02:33;46.71;41.04;62.69;;
72028;Laerm;59781;52.090;5.030;2023-04-24T13:05:00;47.67;41.92;65.28;;
72028;Laerm;59781;52.090;5.030;2023-04-24T13:07:27;46.04;41.90;57.45;;
72028;Laerm;59781;52.090;5.030;2023-04-24T13:09:55;51.35;44.93;67.24;;
72028;Laerm;59781;52.090;5.030;2023-04-24T13:12:22;56.20;43.42;73.84;;
72028;Laerm;59781;52.090;5.030;2023-04-24T13:14:49;47.70;43.11;61.02;;
72028;Laerm;59781;52.090;5.030;2023-04-24T13:17:15;47.34;43.17;64.82;;
72028;Laerm;59781;52.090;5.030;2023-04-24T13:19:43;48.50;43.54;66.98;;
72028;Laerm;59781;52.090;5.030;2023-04-24T13:22:12;47.20;43.91;56.80;;
72028;Laerm;59781;52.090;5.030;2023-04-24T13:24:39;46.90;42.73;56.06;;
72028;Laerm;59781;52.090;5.030;2023-04-24T13:27:08;50.26;41.81;69.22;;
72028;Laerm;59781;52.090;5.030;2023-04-24T13:29:35;48.86;43.25;66.25;;
72028;Laerm;59781;52.090;5.030;2023-04-24T13:32:01;49.01;42.54;74.84;;
72028;Laerm;59781;52.090;5.030;2023-04-24T13:34:27;46.49;41.67;59.32;;
72028;Laerm;59781;52.090;5.030;2023-04-24T13:36:55;48.96;42.62;65.15;;
72028;Laerm;59781;52.090;5.030;2023-04-24T13:39:25;58.43;44.46;78.38;;
72028;Laerm;59781;52.090;5.030;2023-04-24T13:41:55;60.13;42.25;76.64;;
72028;Laerm;59781;52.090;5.030;2023-04-24T13:44:23;62.17;42.51;77.35;;
72028;Laerm;59781;52.090;5.030;2023-04-24T13:46:53;57.41;42.18;76.60;;
72028;Laerm;59781;52.090;5.030;2023-04-24T13:49:20;60.97;40.86;83.08;;
72028;Laerm;59781;52.090;5.030;2023-04-24T13:51:47;47.74;42.66;67.21;;
72028;Laerm;59781;52.090;5.030;2023-04-24T13:54:13;47.40;41.68;67.15;;
72028;Laerm;59781;52.090;5.030;2023-04-24T13:56:41;51.23;41.95;81.09;;
72028;Laerm;59781;52.090;5.030;2023-04-24T13:59:08;46.27;42.06;66.96;;